METAR Data
IDs: Format: Raw Decoded Include TAF

Data at: 0210 UTC 23 Apr 2021

YPPD 230200Z AUTO 09020KT 9999 // NCD 32/M01 Q1015 RF00.0/000.0
YPPD 230130Z AUTO 10021KT 9999 // NCD 31/00 Q1015 RF00.0/000.0
YPPD 230100Z AUTO 10019KT 9999 // NCD 30/00 Q1015
YPPD 230030Z AUTO 11018KT 9999 // NCD 28/M00 Q1015 RF00.0/000.0
YPPD 230000Z AUTO 12014KT 9999 // NCD 27/M00 Q1015
YPPD 222359Z AUTO 12015KT 9999 // NCD 27/M00 Q1015 RF00/0/000/0
YPPD 222330Z AUTO 14008KT 9999 // NCD 23/03 Q1015 RF00.0/000.0
YPPD 222300Z AUTO 16007KT 9999 // NCD 19/03 Q1015
YPPD 222230Z AUTO 15008KT 9999 // NCD 17/03 Q1014 RF00.0/000.0
YPPD 222200Z AUTO 15007KT 9999 // NCD 17/03 Q1014
YPPD 222130Z AUTO 15008KT 9999 // NCD 18/03 Q1014 RF00.0/000.0
YPPD 222100Z AUTO 16009KT 9999 // NCD 18/03 Q1013
YPPD 222030Z AUTO 16009KT 9999 // NCD 18/03 Q1013 RF00.0/000.0
YPPD 222000Z AUTO 16007KT 9999 // NCD 18/04 Q1013
YPPD 221930Z AUTO 16008KT 9999 // NCD 18/03 Q1013 RF00.0/000.0
YPPD 221900Z AUTO 17008KT 9999 // NCD 19/04 Q1013
YPPD 221830Z AUTO 16007KT 9999 // NCD 18/06 Q1013 RF00.0/000.0
YPPD 221800Z AUTO 17007KT 9999 // NCD 20/06 Q1014
YPPD 221730Z AUTO 17006KT 9999 // NCD 21/05 Q1014 RF00.0/000.0
YPPD 221700Z AUTO 15006KT 9999 // NCD 21/07 Q1014
YPPD 221630Z AUTO 16006KT 9999 // NCD 20/12 Q1014 RF00.0/000.0
YPPD 221600Z AUTO 18005KT 9999 // NCD 20/14 Q1015
YPPD 221530Z AUTO 18006KT 9999 // NCD 21/14 Q1015 RF00.0/000.0
YPPD 221500Z AUTO 18005KT 9999 // NCD 21/14 Q1015
YPPD 221430Z AUTO 19006KT 9999 // NCD 22/14 Q1015 RF00.0/000.0
YPPD 221400Z AUTO 19007KT 9999 // NCD 22/14 Q1015
YPPD 221330Z AUTO 19005KT 9999 // NCD 22/14 Q1015 RF00.0/000.0
YPPD 221300Z AUTO 19004KT 9999 // NCD 23/14 Q1015
YPPD 221230Z AUTO 21004KT 170V300 9999 // NCD 24/15 Q1015 RF00.0/000.0
YPPD 221200Z AUTO 30003KT 9999 // NCD 24/15 Q1014
YPPD 221130Z AUTO 30004KT 9999 // NCD 25/15 Q1014 RF00.0/000.0
YPPD 221100Z AUTO 30004KT 9999 // NCD 25/15 Q1014
YPPD 221030Z AUTO 33004KT 9999 // NCD 26/15 Q1013 RF00.0/000.0
YPPD 221000Z AUTO 33006KT 9999 // NCD 27/15 Q1013
YPPD 220930Z AUTO 35008KT 9999 // NCD 29/14 Q1013 RF00.0/000.0
YPPD 220900Z AUTO 35009KT 9999 // NCD 30/13 Q1012
YPPD 220830Z AUTO 35010KT 9999 // NCD 31/13 Q1012 RF00.0/000.0
YPPD 220800Z AUTO 36011KT 9999 // NCD 31/12 Q1012
YPPD 220730Z AUTO 12011KT 9999 // NCD 35/M04 Q1011 RF00.0/000.0
YPPD 220700Z AUTO 13013KT 9999 // NCD 35/M04 Q1012
YPPD 220630Z AUTO 13014KT 9999 // NCD 35/M04 Q1012 RF00.0/000.0
YPPD 220600Z AUTO 10015KT 9999 // NCD 35/M04 Q1012
YPPD 220530Z AUTO 09012KT 9999 // NCD 34/M03 Q1013 RF00.0/000.0
YPPD 220500Z AUTO 13014KT 9999 // NCD 35/M03 Q1013
YPPD 220430Z AUTO 13013KT 9999 // NCD 34/M02 Q1014 RF00.0/000.0
YPPD 220401Z AUTO 13015G25KT 9999 // NCD 34/M04 Q1014
YPPD 220330Z AUTO 12013KT 9999 // NCD 34/M02 Q1015 RF00.0/000.0
YPPD 220300Z AUTO 11014KT 9999 // NCD 34/M02 Q1015
YPPD 220230Z AUTO 10014KT 9999 // NCD 33/M02 Q1015 RF00.0/000.0
YPPD 220200Z AUTO 09015KT 9999 // NCD 33/M01 Q1016
YPPD 220130Z AUTO 09015KT 9999 // NCD 32/M01 Q1016 RF00.0/000.0
YPPD 220100Z AUTO 10017KT 9999 // NCD 31/00 Q1016
YPPD 220030Z AUTO 09015KT 9999 // NCD 30/01 Q1016 RF00.0/000.0
YPPD 220000Z AUTO 11014KT 9999 // NCD 28/03 Q1016
YPPD 212330Z AUTO 11008KT 9999 // NCD 25/04 Q1016 RF00.0/000.0
YPPD 212300Z AUTO 09005KT 9999 // NCD 21/06 Q1015
YPPD 212230Z AUTO 09007KT 9999 // NCD 20/06 Q1015 RF00.0/000.0
YPPD 212200Z AUTO 09007KT 050V120 9999 // NCD 20/07 Q1015
YPPD 212130Z AUTO 15009KT 9999 // NCD 19/09 Q1014 RF00.0/000.0
YPPD 212100Z AUTO 15007KT 9999 // NCD 21/10 Q1014
YPPD 212030Z AUTO 15005KT 9999 // NCD 19/12 Q1014 RF00.0/000.0
YPPD 212000Z AUTO 15007KT 9999 // NCD 20/12 Q1014
YPPD 211930Z AUTO 14008KT 9999 // NCD 20/13 Q1014 RF00.0/000.0
YPPD 211900Z AUTO 16008KT 9999 // NCD 20/14 Q1014
YPPD 211830Z AUTO 17006KT 9999 // NCD 21/15 Q1014 RF00.0/000.0
YPPD 211800Z AUTO 16007KT 9999 // NCD 21/15 Q1014
YPPD 211730Z AUTO 17009KT 9999 // NCD 22/15 Q1015 RF00.0/000.0
YPPD 211700Z AUTO 17008KT 9999 // NCD 22/15 Q1015
YPPD 211630Z AUTO 16006KT 9999 // NCD 22/16 Q1015 RF00.0/000.0
YPPD 211600Z AUTO 17006KT 140V200 9999 // NCD 22/16 Q1015
YPPD 211530Z AUTO 17005KT 9999 // NCD 21/16 Q1015 RF00.0/000.0
YPPD 211500Z AUTO 17006KT 9999 // NCD 22/17 Q1015
YPPD 211430Z AUTO 18005KT 9999 // NCD 23/17 Q1015 RF00.0/000.0